createdAt,value
2023-01-20T00:03:18.409Z,-1.70
2023-01-20T00:08:52.666Z,-1.71
2023-01-20T00:14:25.736Z,-1.73
2023-01-20T00:19:57.352Z,-1.75
2023-01-20T00:25:28.609Z,-1.78
2023-01-20T00:30:59.994Z,-1.80
2023-01-20T00:36:31.897Z,-1.79
2023-01-20T00:42:03.022Z,-1.80
2023-01-20T00:47:34.073Z,-1.80
2023-01-20T00:53:05.391Z,-1.78
2023-01-20T00:58:36.444Z,-1.79
2023-01-20T01:04:07.711Z,-1.81
2023-01-20T01:09:38.916Z,-1.83
2023-01-20T01:15:10.423Z,-1.85
2023-01-20T01:20:41.790Z,-1.86
2023-01-20T01:26:13.044Z,-1.87
2023-01-20T01:31:44.008Z,-1.90
2023-01-20T01:37:15.136Z,-1.91
2023-01-20T01:42:46.307Z,-1.93
2023-01-20T01:48:17.931Z,-1.95
2023-01-20T01:53:54.198Z,-1.97
2023-01-20T01:59:25.222Z,-1.99
2023-01-20T02:04:56.588Z,-2.02
2023-01-20T02:10:27.442Z,-2.04
2023-01-20T02:16:07.626Z,-2.07
2023-01-20T02:21:57.434Z,-2.09
2023-01-20T02:27:47.292Z,-2.12
2023-01-20T02:33:30.953Z,-2.13
2023-01-20T02:39:03.907Z,-2.16
2023-01-20T02:44:54.645Z,-2.17
2023-01-20T02:50:29.018Z,-2.21
2023-01-20T02:55:59.887Z,-2.24
2023-01-20T03:01:48.018Z,-2.27
2023-01-20T03:07:20.421Z,-2.28
2023-01-20T03:12:55.425Z,-2.29
2023-01-20T03:18:26.894Z,-2.31
2023-01-20T03:24:00.375Z,-2.32
2023-01-20T03:29:31.415Z,-2.35
2023-01-20T03:35:02.723Z,-2.36
2023-01-20T03:40:35.980Z,-2.36
2023-01-20T03:46:08.833Z,-2.38
2023-01-20T03:51:55.465Z,-2.39
2023-01-20T03:57:27.996Z,-2.41
2023-01-20T04:02:59.250Z,-2.42
2023-01-20T04:08:32.094Z,-2.45
2023-01-20T04:14:03.251Z,-2.44
2023-01-20T04:19:34.364Z,-2.44
2023-01-20T04:25:16.344Z,-2.45
2023-01-20T04:30:48.143Z,-2.46
2023-01-20T04:36:35.232Z,-2.48
2023-01-20T04:42:06.570Z,-2.48
2023-01-20T04:47:37.411Z,-2.48
2023-01-20T04:53:13.576Z,-2.48
2023-01-20T04:58:44.402Z,-2.48
2023-01-20T05:04:15.673Z,-2.49
2023-01-20T05:09:46.728Z,-2.47
2023-01-20T05:15:17.748Z,-2.51
2023-01-20T05:20:49.370Z,-2.51
2023-01-20T05:26:20.386Z,-2.50
2023-01-20T05:31:51.410Z,-2.51
2023-01-20T05:37:22.546Z,-2.51
2023-01-20T05:42:53.738Z,-2.52
2023-01-20T05:48:25.370Z,-2.52
2023-01-20T05:53:56.199Z,-2.54
2023-01-20T05:59:27.076Z,-2.52
2023-01-20T06:05:02.049Z,-2.51
2023-01-20T06:10:33.407Z,-2.53
2023-01-20T06:16:07.296Z,-2.52
2023-01-20T06:21:38.361Z,-2.53
2023-01-20T06:27:10.048Z,-2.55
2023-01-20T06:32:41.302Z,-2.55
2023-01-20T06:38:12.229Z,-2.54
2023-01-20T06:43:43.579Z,-2.56
2023-01-20T06:49:15.084Z,-2.55
2023-01-20T06:54:46.225Z,-2.55
2023-01-20T07:00:17.343Z,-2.56
2023-01-20T07:05:55.359Z,-2.53
2023-01-20T07:11:26.503Z,-2.53
2023-01-20T07:16:57.579Z,-2.53
2023-01-20T07:22:28.635Z,-2.48
2023-01-20T07:27:59.788Z,-2.46
2023-01-20T07:33:31.491Z,-2.41
2023-01-20T07:39:02.351Z,-2.40
2023-01-20T07:44:33.320Z,-2.40
2023-01-20T07:50:04.616Z,-2.40
2023-01-20T07:55:35.579Z,-2.40
2023-01-20T08:01:18.581Z,-2.33
2023-01-20T08:06:50.279Z,-2.31
2023-01-20T08:12:21.352Z,-2.31
2023-01-20T08:17:55.805Z,-2.28
2023-01-20T08:23:26.632Z,-2.29
2023-01-20T08:29:10.322Z,-2.27
2023-01-20T08:34:41.263Z,-2.25
2023-01-20T08:40:12.562Z,-2.18
2023-01-20T08:45:44.035Z,-2.14
2023-01-20T08:51:16.434Z,-2.09
2023-01-20T08:56:49.698Z,-2.05
2023-01-20T09:02:20.602Z,-2.01
2023-01-20T09:07:52.022Z,-1.90
2023-01-20T09:13:22.971Z,-1.91
2023-01-20T09:18:54.189Z,-1.85
2023-01-20T09:24:25.923Z,-1.82
2023-01-20T09:29:57.085Z,-1.83
2023-01-20T09:35:28.487Z,-1.82
2023-01-20T09:41:25.057Z,-1.80
2023-01-20T09:47:14.682Z,-1.77
2023-01-20T09:53:04.937Z,-1.76
2023-01-20T09:58:46.412Z,-1.72
2023-01-20T10:04:17.543Z,-1.65
2023-01-20T10:09:54.529Z,-1.67
2023-01-20T10:15:27.103Z,-1.65
2023-01-20T10:21:01.105Z,-1.62
2023-01-20T10:26:38.937Z,-1.61
2023-01-20T10:32:14.597Z,-1.58
2023-01-20T10:37:45.836Z,-1.53
2023-01-20T10:43:17.248Z,-1.49
2023-01-20T10:48:58.573Z,-1.45
2023-01-20T10:54:46.887Z,-1.40
2023-01-20T11:00:22.905Z,-1.35
2023-01-20T11:05:53.697Z,-1.34
2023-01-20T11:11:25.224Z,-1.31
2023-01-20T11:17:01.358Z,-1.27
2023-01-20T11:22:33.645Z,-1.24
2023-01-20T11:28:06.389Z,-1.21
2023-01-20T11:33:37.267Z,-1.18
2023-01-20T11:39:23.101Z,-1.13
2023-01-20T11:44:55.031Z,-1.08
2023-01-20T11:51:01.512Z,-1.05
2023-01-20T11:56:32.571Z,-1.01
2023-01-20T12:02:09.149Z,-0.98
2023-01-20T12:07:42.601Z,-0.94
2023-01-20T12:13:54.034Z,-0.88
2023-01-20T12:19:37.270Z,-0.85
2023-01-20T12:25:13.346Z,-0.81
2023-01-20T12:30:54.302Z,-0.78
2023-01-20T12:36:28.453Z,-0.76
2023-01-20T12:42:18.020Z,-0.72
2023-01-20T12:47:49.133Z,-0.71
2023-01-20T12:53:30.853Z,-0.69
2023-01-20T12:59:20.746Z,-0.65
2023-01-20T13:04:54.847Z,-0.62
2023-01-20T13:10:48.383Z,-0.62
2023-01-20T13:16:23.863Z,-0.59
2023-01-20T13:22:09.352Z,-0.57
2023-01-20T13:27:40.429Z,-0.54
2023-01-20T13:33:32.068Z,-0.52
2023-01-20T13:39:21.374Z,-0.53
2023-01-20T13:45:11.307Z,-0.50
2023-01-20T13:50:43.369Z,-0.49
2023-01-20T13:56:23.218Z,-0.50
2023-01-20T14:01:54.469Z,-0.49
2023-01-20T14:07:26.127Z,-0.50
2023-01-20T14:12:57.166Z,-0.51
2023-01-20T14:18:28.398Z,-0.52
2023-01-20T14:23:59.444Z,-0.54
2023-01-20T14:29:30.511Z,-0.52
2023-01-20T14:35:02.022Z,-0.52
2023-01-20T14:40:34.421Z,-0.50
2023-01-20T14:46:05.597Z,-0.49
2023-01-20T14:51:36.904Z,-0.48
2023-01-20T14:57:21.584Z,-0.50
2023-01-20T15:03:09.524Z,-0.50
2023-01-20T15:08:42.288Z,-0.50
2023-01-20T15:14:14.187Z,-0.50
2023-01-20T15:19:46.419Z,-0.48
2023-01-20T15:25:17.645Z,-0.46
2023-01-20T15:30:48.889Z,-0.47
2023-01-20T15:36:21.900Z,-0.47
2023-01-20T15:41:55.965Z,-0.46
2023-01-20T15:47:31.096Z,-0.48
2023-01-20T15:53:03.637Z,-0.49
2023-01-20T15:58:34.523Z,-0.50
2023-01-20T16:04:05.807Z,-0.53
2023-01-20T16:09:38.760Z,-0.51
2023-01-20T16:15:14.744Z,-0.49
2023-01-20T16:20:46.503Z,-0.50
2023-01-20T16:26:22.939Z,-0.50
2023-01-20T16:31:54.141Z,-0.52
2023-01-20T16:37:25.270Z,-0.56
2023-01-20T16:42:56.664Z,-0.57
2023-01-20T16:48:27.533Z,-0.59
2023-01-20T16:53:58.820Z,-0.60
2023-01-20T16:59:30.065Z,-0.62
2023-01-20T17:05:01.390Z,-0.64
2023-01-20T17:10:32.863Z,-0.63
2023-01-20T17:16:05.903Z,-0.63
2023-01-20T17:21:38.000Z,-0.63
2023-01-20T17:27:08.943Z,-0.65
2023-01-20T17:32:40.222Z,-0.64
2023-01-20T17:38:11.328Z,-0.67
2023-01-20T17:43:48.162Z,-0.70
2023-01-20T17:49:19.369Z,-0.72
2023-01-20T17:54:51.519Z,-0.71
2023-01-20T18:00:22.733Z,-0.70
2023-01-20T18:05:55.339Z,-0.71
2023-01-20T18:11:27.840Z,-0.72
2023-01-20T18:16:58.682Z,-0.70
2023-01-20T18:22:29.933Z,-0.74
2023-01-20T18:28:00.718Z,-0.74
2023-01-20T18:33:34.376Z,-0.73
2023-01-20T18:39:09.558Z,-0.74
2023-01-20T18:44:40.929Z,-0.75
2023-01-20T18:50:11.999Z,-0.75
2023-01-20T18:55:43.484Z,-0.77
2023-01-20T19:01:15.404Z,-0.76
2023-01-20T19:06:46.597Z,-0.77
2023-01-20T19:12:17.625Z,-0.77
2023-01-20T19:17:48.673Z,-0.77
2023-01-20T19:23:19.945Z,-0.77
2023-01-20T19:28:58.372Z,-0.76
2023-01-20T19:34:29.518Z,-0.76
2023-01-20T19:40:00.915Z,-0.77
2023-01-20T19:45:45.490Z,-0.85
2023-01-20T19:51:18.297Z,-0.80
2023-01-20T19:56:49.548Z,-0.81
2023-01-20T20:02:20.391Z,-0.82
2023-01-20T20:07:51.361Z,-0.84
2023-01-20T20:13:22.857Z,-0.82
2023-01-20T20:18:54.303Z,-0.84
2023-01-20T20:24:25.097Z,-0.82
2023-01-20T20:30:00.203Z,-0.83
2023-01-20T20:35:31.717Z,-0.85
2023-01-20T20:41:03.668Z,-0.86
2023-01-20T20:46:34.923Z,-0.86
2023-01-20T20:52:06.032Z,-0.86
2023-01-20T20:57:37.184Z,-0.85
2023-01-20T21:03:08.637Z,-0.86
2023-01-20T21:08:39.859Z,-0.87
2023-01-20T21:14:10.712Z,-0.90
2023-01-20T21:19:41.781Z,-0.90
2023-01-20T21:25:13.201Z,-0.94
2023-01-20T21:30:44.527Z,-0.96
2023-01-20T21:36:15.498Z,-0.98
2023-01-20T21:41:46.688Z,-1.01
2023-01-20T21:47:17.361Z,-1.00
2023-01-20T21:52:49.748Z,-1.01
2023-01-20T21:58:20.618Z,-1.03
2023-01-20T22:03:51.848Z,-1.04
2023-01-20T22:09:22.951Z,-1.06
2023-01-20T22:14:53.999Z,-1.07
2023-01-20T22:20:25.180Z,-1.08
2023-01-20T22:25:56.517Z,-1.10
2023-01-20T22:31:28.751Z,-1.12
2023-01-20T22:37:00.879Z,-1.13
2023-01-20T22:42:32.377Z,-1.13
2023-01-20T22:48:03.787Z,-1.14
2023-01-20T22:53:35.141Z,-1.14
2023-01-20T22:59:06.304Z,-1.16
2023-01-20T23:04:37.418Z,-1.17
2023-01-20T23:10:09.025Z,-1.18
2023-01-20T23:15:39.961Z,-1.19
2023-01-20T23:21:11.080Z,-1.21
2023-01-20T23:26:42.531Z,-1.21
2023-01-20T23:32:13.675Z,-1.22
2023-01-20T23:37:44.899Z,-1.22
2023-01-20T23:43:16.003Z,-1.24
2023-01-20T23:48:47.454Z,-1.24
2023-01-20T23:54:18.501Z,-1.25
2023-01-20T23:59:49.722Z,-1.27
